Time;durP1;ratioP1;P1;durP2;ratioP2;P2;SDS_P1;SDS_P2;PMS_P1;PMS_P2;Temp;Humidity;BMP_temperature;BMP_pressure;BME280_temperature;BME280_humidity;BME280_pressure;Samples;Min_cycle;Max_cycle;Signal;HPM_P1;HPM_P2
2021/09/05 00:00:43;;;;;;;12.07;9.07;;;15.10;77.10;;;14.15;77.37;96162.88;4941894;28;20126;-64
2021/09/05 00:03:08;;;;;;;11.85;9.50;;;15.10;77.10;;;14.13;78.10;96164.91;4965414;28;20065;-64
2021/09/05 00:05:34;;;;;;;12.30;10.15;;;15.10;77.30;;;14.13;77.27;96164.91;4969456;28;20459;-64
2021/09/05 00:08:00;;;;;;;14.85;9.60;;;15.10;77.50;;;14.12;77.07;96168.59;4971002;28;20510;-64
2021/09/05 00:10:25;;;;;;;11.38;9.25;;;15.10;77.20;;;14.09;78.64;96160.06;4968813;28;20058;-64
2021/09/05 00:12:51;;;;;;;12.93;9.40;;;15.10;77.40;;;14.06;77.83;96160.47;4948700;28;20442;-64
2021/09/05 00:15:17;;;;;;;11.90;9.55;;;15.10;77.40;;;14.05;78.47;96158.03;4986003;28;20586;-64
2021/09/05 00:17:43;;;;;;;15.75;11.45;;;15.00;77.40;;;14.02;77.79;96164.53;4970968;28;20769;-64
2021/09/05 00:20:09;;;;;;;15.02;10.60;;;15.10;77.70;;;14.01;77.90;96156.81;4966999;28;20035;-65
2021/09/05 00:22:35;;;;;;;13.43;10.18;;;15.10;77.60;;;13.99;78.19;96164.13;4954375;28;20101;-64
2021/09/05 00:25:01;;;;;;;12.50;10.18;;;15.00;77.60;;;13.98;77.54;96159.88;4967733;28;20055;-64
2021/09/05 00:27:26;;;;;;;13.60;10.85;;;15.00;77.60;;;13.98;78.00;96163.31;4966052;28;20038;-64
2021/09/05 00:29:52;;;;;;;11.73;10.48;;;15.00;77.50;;;13.98;78.36;96157.22;4952718;28;20690;-64
2021/09/05 00:32:18;;;;;;;15.10;10.60;;;15.00;77.50;;;13.97;77.90;96161.69;4947210;28;20105;-64
2021/09/05 00:34:44;;;;;;;12.35;10.15;;;15.00;77.40;;;13.98;77.98;96158.03;4963488;28;20077;-64
2021/09/05 00:37:09;;;;;;;14.23;10.13;;;15.00;77.30;;;13.94;78.59;96162.13;4988281;28;20035;-64
2021/09/05 00:39:35;;;;;;;12.77;10.30;;;15.00;77.40;;;13.95;78.29;96169.03;4969421;28;20082;-64
2021/09/05 00:42:01;;;;;;;13.15;9.82;;;15.00;77.40;;;13.94;77.66;96166.59;4970807;28;20681;-64
2021/09/05 00:44:27;;;;;;;13.05;10.75;;;15.00;77.30;;;13.93;78.12;96167.63;4965914;28;20627;-64
2021/09/05 00:46:52;;;;;;;12.63;9.88;;;14.90;77.30;;;13.90;78.67;96170.69;4977537;28;20059;-64
2021/09/05 00:49:18;;;;;;;13.30;10.00;;;14.90;77.40;;;13.89;78.06;96169.88;4949806;28;20097;-64
2021/09/05 00:51:44;;;;;;;15.02;9.85;;;14.90;77.30;;;13.87;78.28;96168.47;4967820;28;20043;-64
2021/09/05 00:54:12;;;;;;;11.75;9.68;;;14.90;77.30;;;13.87;78.70;96166.63;4934727;28;20058;-64
2021/09/05 00:56:41;;;;;;;10.88;9.73;;;14.90;77.30;;;13.85;77.67;96170.50;4971387;28;20458;-64
2021/09/05 00:59:11;;;;;;;15.48;10.30;;;14.90;77.20;;;13.82;78.17;96184.97;4968673;28;20037;-64
2021/09/05 01:01:37;;;;;;;11.60;9.88;;;14.80;76.90;;;13.78;77.55;96178.44;4951747;28;20043;-64
2021/09/05 01:04:03;;;;;;;12.55;9.38;;;14.80;76.80;;;13.76;77.43;96181.28;4964379;28;20050;-65
2021/09/05 01:06:29;;;;;;;11.15;8.75;;;14.80;76.60;;;13.74;77.60;96179.88;4934072;28;20130;-64
2021/09/05 01:08:56;;;;;;;10.10;8.40;;;14.70;76.40;;;13.72;77.71;96187.19;4951984;28;20027;-64
2021/09/05 01:11:21;;;;;;;11.73;7.93;;;14.70;76.10;;;13.64;78.08;96190.88;4937783;28;20403;-64
2021/09/05 01:13:47;;;;;;;9.13;7.78;;;14.60;76.40;;;13.56;76.98;96184.97;4971230;28;20023;-64
2021/09/05 01:16:45;;;;;;;8.55;7.15;;;14.50;76.50;;;13.51;78.56;96187.44;4952176;28;20133;-64
2021/09/05 01:19:16;;;;;;;9.18;6.88;;;14.50;76.50;;;13.44;77.48;96182.97;4952076;28;20054;-64
2021/09/05 01:21:45;;;;;;;8.00;6.25;;;14.40;76.60;;;13.39;77.14;96180.13;4938983;28;20089;-64
2021/09/05 01:24:11;;;;;;;9.25;6.32;;;14.50;76.60;;;13.37;76.88;96182.16;4950492;28;20058;-64
2021/09/05 01:26:39;;;;;;;9.05;6.68;;;14.40;76.60;;;13.35;77.90;96189.50;4951154;28;20125;-64
2021/09/05 01:29:05;;;;;;;10.13;6.68;;;14.30;76.50;;;13.31;77.48;96187.44;4969927;28;20059;-64
2021/09/05 01:31:49;;;;;;;8.18;6.78;;;14.40;76.50;;;13.30;78.04;96181.34;4953830;28;20078;-64
2021/09/05 01:34:18;;;;;;;9.13;7.55;;;14.40;76.50;;;13.26;77.72;96189.88;4951509;28;20116;-64
2021/09/05 01:36:45;;;;;;;8.85;6.70;;;14.30;76.70;;;13.23;78.05;96180.53;4941798;28;20045;-64
2021/09/05 01:39:12;;;;;;;9.43;7.55;;;14.30;76.90;;;13.21;77.82;96195.78;4969780;28;20042;-64
2021/09/05 01:41:38;;;;;;;10.73;7.63;;;14.30;77.00;;;13.17;77.71;96189.25;4970727;28;20043;-64
2021/09/05 01:44:09;;;;;;;10.02;7.85;;;14.30;77.20;;;13.17;78.49;96194.53;4950350;28;20058;-64
2021/09/05 01:46:35;;;;;;;8.30;7.13;;;14.20;77.40;;;13.14;78.22;96192.28;4966558;28;20434;-64
2021/09/05 01:49:00;;;;;;;9.73;7.28;;;14.20;77.40;;;13.11;77.95;96201.41;4968970;28;20034;-64
2021/09/05 01:51:26;;;;;;;8.60;7.20;;;14.20;77.40;;;13.10;78.77;96201.63;4963769;28;20049;-64
2021/09/05 01:53:52;;;;;;;9.38;8.00;;;14.20;77.50;;;13.09;78.55;96197.34;4943602;28;20051;-64
2021/09/05 01:56:18;;;;;;;12.07;7.50;;;14.20;77.50;;;13.06;79.33;96200.41;4949834;28;20043;-64
2021/09/05 01:58:44;;;;;;;11.70;7.65;;;14.10;77.70;;;13.08;79.09;96203.66;4954122;28;20122;-64
2021/09/05 02:01:10;;;;;;;9.52;8.00;;;14.20;77.60;;;13.06;78.76;96205.69;4952495;28;20045;-64
2021/09/05 02:03:35;;;;;;;12.27;8.20;;;14.20;77.60;;;13.05;78.47;96209.34;4952213;28;20486;-65
2021/09/05 02:06:01;;;;;;;10.45;9.02;;;14.20;77.60;;;13.05;79.38;96206.69;4968432;28;20457;-64
2021/09/05 02:08:27;;;;;;;11.00;8.57;;;14.10;77.90;;;13.04;79.21;96205.06;4968413;28;20616;-64
2021/09/05 02:10:53;;;;;;;10.98;8.65;;;14.10;77.90;;;13.02;78.67;96205.28;4971624;28;20129;-64
2021/09/05 02:13:18;;;;;;;10.90;9.15;;;14.00;77.90;;;12.98;79.18;96204.06;4968551;28;20049;-64
2021/09/05 02:15:44;;;;;;;9.38;8.25;;;14.10;77.90;;;12.94;79.18;96208.13;4951724;28;20047;-64
2021/09/05 02:18:10;;;;;;;9.13;7.75;;;14.10;77.90;;;12.92;79.18;96201.41;4983842;28;20109;-64
2021/09/05 02:20:35;;;;;;;12.23;7.70;;;14.10;77.80;;;12.91;79.38;96207.72;4982513;28;20574;-64
2021/09/05 02:23:01;;;;;;;9.43;7.40;;;14.10;77.60;;;12.89;79.55;96210.53;4946296;28;20333;-64
2021/09/05 02:25:27;;;;;;;8.55;7.18;;;14.00;77.80;;;12.86;79.83;96206.47;4951227;28;20522;-64
2021/09/05 02:27:53;;;;;;;8.10;7.03;;;14.00;77.80;;;12.85;79.62;96212.75;4950971;28;20727;-64
2021/09/05 02:30:18;;;;;;;10.95;7.60;;;13.90;77.90;;;12.82;79.25;96212.34;4949543;28;20054;-64
2021/09/05 02:32:44;;;;;;;8.38;7.30;;;13.90;78.20;;;12.84;79.69;96213.75;4951923;28;20034;-64
2021/09/05 02:35:10;;;;;;;12.48;8.00;;;13.90;78.10;;;12.84;80.02;96212.94;4968800;28;20035;-64
2021/09/05 02:37:37;;;;;;;9.90;7.43;;;13.90;78.20;;;12.84;79.17;96223.50;4951797;28;20047;-64
2021/09/05 02:40:04;;;;;;;11.45;7.43;;;13.90;78.10;;;12.79;79.38;96208.28;4951354;28;20039;-66
2021/09/05 02:42:33;;;;;;;8.95;7.57;;;13.90;78.00;;;12.77;79.74;96212.94;4965320;28;20450;-64
2021/09/05 02:45:01;;;;;;;9.35;7.57;;;13.90;78.00;;;12.74;80.12;96210.72;4949078;28;20040;-64
2021/09/05 02:47:27;;;;;;;9.45;7.57;;;13.90;78.00;;;12.72;79.21;96204.81;4958533;28;20027;-64
2021/09/05 02:49:52;;;;;;;9.27;7.63;;;13.90;77.90;;;12.71;79.88;96211.13;4984818;28;20041;-64
2021/09/05 02:52:18;;;;;;;8.60;7.65;;;13.90;78.20;;;12.70;79.38;96214.75;4948388;28;20113;-64
2021/09/05 02:54:44;;;;;;;8.38;7.40;;;13.80;78.20;;;12.69;79.74;96221.06;4966062;28;20077;-64
2021/09/05 02:57:10;;;;;;;10.93;7.53;;;13.80;78.10;;;12.66;79.51;96220.63;4967121;28;20031;-64
2021/09/05 02:59:35;;;;;;;10.70;6.78;;;13.70;78.30;;;12.61;79.30;96226.50;4961202;28;20083;-64
2021/09/05 03:02:01;;;;;;;10.10;7.20;;;13.70;78.00;;;12.60;79.56;96230.16;4969080;28;20081;-63
2021/09/05 03:04:28;;;;;;;8.25;6.30;;;13.70;77.90;;;12.57;79.67;96227.91;4950043;28;20118;-64
2021/09/05 03:06:54;;;;;;;8.20;6.45;;;13.60;77.70;;;12.53;79.36;96222.22;4967745;28;20039;-64
2021/09/05 03:09:20;;;;;;;8.95;6.18;;;13.60;77.80;;;12.47;79.59;96223.00;4947555;28;20039;-64
2021/09/05 03:11:46;;;;;;;13.75;6.25;;;13.60;77.80;;;12.45;79.58;96221.59;4966133;28;20131;-63
2021/09/05 03:14:11;;;;;;;8.15;6.05;;;13.60;77.70;;;12.45;79.29;96221.59;4967013;28;20034;-64
2021/09/05 03:16:37;;;;;;;7.03;5.70;;;13.60;77.60;;;12.41;79.12;96222.97;4982274;28;20070;-64
2021/09/05 03:19:03;;;;;;;7.18;6.03;;;13.60;77.60;;;12.40;79.29;96226.63;4966559;28;20133;-64
2021/09/05 03:21:29;;;;;;;8.70;6.00;;;13.60;77.50;;;12.38;79.29;96223.38;4968328;28;20121;-64
2021/09/05 03:23:54;;;;;;;7.60;5.82;;;13.50;77.30;;;12.34;79.13;96233.50;4966035;28;20059;-64
2021/09/05 03:26:20;;;;;;;8.35;6.28;;;13.50;77.30;;;12.32;79.23;96221.53;4983366;28;20406;-64
2021/09/05 03:28:46;;;;;;;8.18;6.43;;;13.40;77.70;;;12.29;79.27;96232.47;4942096;28;20986;-64
2021/09/05 03:31:11;;;;;;;8.80;6.43;;;13.40;77.80;;;12.27;79.51;96232.66;4949259;28;20553;-64
2021/09/05 03:33:37;;;;;;;8.52;6.50;;;13.50;77.90;;;12.25;79.83;96230.22;4965912;28;20034;-64
2021/09/05 03:36:04;;;;;;;8.35;6.07;;;13.40;77.80;;;12.24;79.92;96238.34;4951787;28;20549;-64
2021/09/05 03:38:30;;;;;;;7.95;5.95;;;13.40;77.70;;;12.23;79.40;96237.53;4950241;28;20042;-64
2021/09/05 03:40:56;;;;;;;7.60;6.80;;;13.40;77.80;;;12.20;79.55;96237.88;4951029;28;20122;-64
2021/09/05 03:43:22;;;;;;;8.70;7.47;;;13.40;78.00;;;12.21;79.73;96243.97;4979215;28;20043;-64
2021/09/05 03:45:47;;;;;;;9.90;7.57;;;13.40;78.10;;;12.17;79.75;96240.91;4966968;28;20035;-64
2021/09/05 03:48:13;;;;;;;10.68;8.15;;;13.30;78.50;;;12.17;80.00;96245.38;4963331;28;20124;-64
2021/09/05 03:50:39;;;;;;;9.95;7.85;;;13.30;78.80;;;12.15;80.63;96239.50;4949888;28;20054;-64
2021/09/05 03:53:04;;;;;;;10.30;8.30;;;13.30;78.80;;;12.13;80.57;96242.31;4941365;28;20090;-64
2021/09/05 03:55:30;;;;;;;11.55;8.00;;;13.30;79.00;;;12.12;80.71;96239.88;4983619;28;20117;-64
2021/09/05 03:57:56;;;;;;;9.38;8.38;;;13.30;79.10;;;12.13;80.76;96241.50;4967063;28;20032;-64
2021/09/05 04:00:22;;;;;;;12.45;8.30;;;13.40;78.90;;;12.13;80.45;96242.31;4963479;28;20039;-64
2021/09/05 04:02:47;;;;;;;11.27;8.77;;;13.40;78.70;;;12.15;80.59;96247.41;4963298;28;20042;-64
2021/09/05 04:05:13;;;;;;;9.75;8.48;;;13.40;78.80;;;12.13;80.52;96247.59;4947707;28;20066;-64
2021/09/05 04:07:43;;;;;;;9.15;8.23;;;13.30;78.50;;;12.13;80.96;96244.16;4958536;28;20069;-64
2021/09/05 04:10:10;;;;;;;11.27;9.27;;;13.30;78.50;;;12.13;80.79;96246.78;4958393;28;20045;-64
2021/09/05 04:12:38;;;;;;;12.70;9.70;;;13.30;78.60;;;12.13;81.04;96252.88;4948447;28;20042;-64
2021/09/05 04:15:05;;;;;;;13.50;9.27;;;13.40;78.90;;;12.10;80.82;96245.34;4967524;28;20118;-64
2021/09/05 04:17:31;;;;;;;13.57;10.25;;;13.30;78.80;;;12.09;80.67;96249.00;4964543;28;20426;-64
2021/09/05 04:19:56;;;;;;;11.20;9.52;;;13.20;79.20;;;12.07;80.62;96245.75;4965677;28;20123;-64
2021/09/05 04:22:22;;;;;;;14.95;9.80;;;13.20;79.10;;;12.05;81.52;96245.13;4946862;28;20435;-64
2021/09/05 04:24:49;;;;;;;12.43;9.45;;;13.20;79.00;;;12.02;80.74;96244.72;4962026;28;20116;-63
2021/09/05 04:27:15;;;;;;;9.27;8.38;;;13.20;79.10;;;11.99;81.57;96242.44;4975176;28;20039;-64
2021/09/05 04:29:40;;;;;;;11.80;8.20;;;13.10;79.10;;;11.97;81.03;96245.28;4964745;28;20038;-64
2021/09/05 04:32:07;;;;;;;9.55;8.38;;;13.10;79.10;;;11.97;80.95;96247.91;4944265;28;20039;-64
2021/09/05 04:34:32;;;;;;;9.77;8.23;;;13.10;78.90;;;11.94;81.37;96248.28;4925409;28;20039;-64
2021/09/05 04:36:58;;;;;;;10.02;8.23;;;13.10;78.90;;;11.93;80.84;96254.56;4936918;28;20113;-64
2021/09/05 04:39:24;;;;;;;10.23;8.32;;;13.10;78.80;;;11.91;80.76;96251.31;4946390;28;20117;-64
2021/09/05 04:41:49;;;;;;;10.63;8.10;;;13.10;78.70;;;11.91;81.25;96257.41;4963017;28;20039;-64
2021/09/05 04:44:15;;;;;;;9.05;8.00;;;13.10;78.70;;;11.89;81.24;96261.25;4976482;28;20569;-64
2021/09/05 04:46:41;;;;;;;10.63;8.63;;;13.10;78.80;;;11.89;81.37;96261.25;4947501;28;20514;-63
2021/09/05 04:49:07;;;;;;;10.43;8.20;;;13.10;78.70;;;11.85;81.57;96260.81;4963554;28;20155;-64
2021/09/05 04:51:32;;;;;;;11.43;8.55;;;13.10;78.70;;;11.86;81.47;96269.53;4946800;28;20038;-64
2021/09/05 04:53:58;;;;;;;9.88;7.65;;;13.10;78.60;;;11.84;81.19;96272.38;4953703;28;20667;-63
2021/09/05 04:56:24;;;;;;;9.27;7.07;;;13.10;78.70;;;11.85;81.36;96281.09;4967143;28;20050;-63
2021/09/05 04:58:49;;;;;;;7.35;6.32;;;13.10;78.50;;;11.80;80.81;96271.13;4970027;28;20084;-64
2021/09/05 05:01:15;;;;;;;8.27;6.25;;;13.10;78.30;;;11.82;81.04;96276.22;4984854;28;20063;-64
2021/09/05 05:03:41;;;;;;;8.35;6.90;;;13.10;78.00;;;11.81;80.99;96285.13;4983540;28;20030;-64
2021/09/05 05:06:07;;;;;;;8.30;6.40;;;13.10;77.90;;;11.81;80.17;96290.41;4951055;28;20035;-65
2021/09/05 05:08:36;;;;;;;8.35;6.45;;;13.10;77.70;;;11.80;80.35;96291.41;4970433;28;20109;-64
2021/09/05 05:11:02;;;;;;;7.78;6.15;;;13.10;77.80;;;11.76;80.99;96293.56;4964474;28;20035;-64
2021/09/05 05:13:27;;;;;;;7.72;6.45;;;13.00;78.00;;;11.76;80.60;96298.00;4953570;28;20037;-64
2021/09/05 05:15:56;;;;;;;12.55;7.53;;;13.10;78.00;;;11.78;80.71;96301.28;4969287;28;20047;-64
2021/09/05 05:18:25;;;;;;;12.48;9.35;;;13.10;78.50;;;11.78;81.82;96306.56;4953183;28;20088;-64
2021/09/05 05:20:51;;;;;;;13.00;9.60;;;13.10;79.20;;;11.78;81.02;96301.28;4947819;28;20043;-64
2021/09/05 05:23:17;;;;;;;12.98;10.80;;;13.10;79.10;;;11.79;82.17;96306.41;4964211;28;20084;-64
2021/09/05 05:25:43;;;;;;;11.48;9.98;;;13.10;79.70;;;11.80;81.79;96304.59;4980895;28;20035;-62
2021/09/05 05:28:08;;;;;;;12.40;10.10;;;13.10;79.70;;;11.80;82.42;96299.31;4932468;28;20036;-65
2021/09/05 05:30:34;;;;;;;14.20;10.00;;;13.10;79.90;;;11.83;83.00;96304.19;4970533;28;20058;-65
2021/09/05 05:33:00;;;;;;;15.15;10.30;;;13.20;79.70;;;11.87;82.26;96305.44;4970754;28;20054;-64
2021/09/05 05:35:26;;;;;;;14.98;10.75;;;13.30;79.70;;;11.92;82.57;96305.66;4964264;28;20043;-66
2021/09/05 05:37:51;;;;;;;11.60;10.15;;;13.40;79.50;;;11.96;83.14;96304.28;4948737;29;20027;-65
2021/09/05 05:40:22;;;;;;;11.95;9.25;;;13.50;79.40;;;12.02;82.46;96308.78;4936107;28;20062;-64
2021/09/05 05:42:49;;;;;;;11.57;9.30;;;13.60;79.10;;;12.08;82.38;96308.03;4960051;28;20035;-64
2021/09/05 05:45:18;;;;;;;10.80;9.70;;;13.60;78.80;;;12.13;82.56;96310.88;4953498;28;20031;-64
2021/09/05 05:47:44;;;;;;;11.52;9.85;;;13.70;78.60;;;12.17;82.54;96306.84;4971110;28;20027;-64
2021/09/05 05:50:10;;;;;;;10.88;9.75;;;13.70;78.60;;;12.23;82.54;96307.91;4972639;28;20031;-64
2021/09/05 05:52:36;;;;;;;12.52;9.40;;;13.80;78.20;;;12.30;82.92;96313.22;4935750;28;20072;-64
2021/09/05 05:55:02;;;;;;;13.88;10.07;;;13.90;78.10;;;12.36;82.07;96312.44;4971416;28;20525;-64
2021/09/05 05:57:28;;;;;;;11.75;9.43;;;14.00;77.90;;;12.40;81.86;96316.31;4954821;28;20039;-64
2021/09/05 05:59:54;;;;;;;11.05;9.63;;;14.10;77.80;;;12.48;82.31;96318.81;4971065;28;20569;-64
2021/09/05 06:02:20;;;;;;;11.18;9.43;;;14.10;77.70;;;12.54;82.50;96321.47;4967538;28;20197;-64
2021/09/05 06:04:45;;;;;;;10.82;9.43;;;14.20;77.70;;;12.60;82.61;96321.69;4948269;28;20058;-64
2021/09/05 06:07:11;;;;;;;11.02;9.52;;;14.30;77.50;;;12.69;82.59;96320.53;4955230;28;20339;-64
2021/09/05 06:09:41;;;;;;;10.93;9.80;;;14.40;77.50;;;12.75;82.46;96325.84;4960324;28;20117;-64
2021/09/05 06:12:10;;;;;;;11.13;9.98;;;14.50;77.50;;;12.82;82.54;96328.50;4971952;28;20038;-65
2021/09/05 06:14:37;;;;;;;12.07;10.55;;;14.50;77.70;;;12.88;83.18;96331.16;4927542;28;20049;-64
2021/09/05 06:17:03;;;;;;;12.52;10.27;;;14.60;77.90;;;12.96;83.02;96327.53;4955119;28;20505;-64
2021/09/05 06:19:29;;;;;;;13.27;10.77;;;14.60;78.10;;;13.01;82.89;96335.69;4939748;29;20047;-64
2021/09/05 06:21:54;;;;;;;45.10;34.90;;;14.60;78.10;;;13.06;83.25;96332.44;4935675;29;20431;-64
2021/09/05 06:24:20;;;;;;;14.38;12.35;;;14.70;78.20;;;13.14;83.50;96337.56;4956571;28;20050;-64
2021/09/05 06:26:46;;;;;;;13.75;10.40;;;14.80;78.20;;;13.21;82.71;96340.25;4963528;28;20034;-63
2021/09/05 06:29:12;;;;;;;12.82;10.93;;;14.90;77.70;;;13.28;82.16;96339.22;4967553;28;20499;-63
2021/09/05 06:31:37;;;;;;;17.33;13.18;;;15.00;77.80;;;13.34;82.84;96335.78;4939928;28;20448;-65
2021/09/05 06:34:03;;;;;;;12.57;10.38;;;15.10;77.60;;;13.42;82.90;96342.72;4954365;28;20407;-65
2021/09/05 06:36:29;;;;;;;59.90;49.33;;;15.10;77.40;;;13.49;83.11;96341.72;4949894;28;20090;-65
2021/09/05 06:38:55;;;;;;;31.08;26.27;;;15.30;77.40;;;13.57;82.13;96346.00;4935411;29;20024;-65
2021/09/05 06:41:20;;;;;;;14.88;12.38;;;15.40;77.20;;;13.68;82.22;96341.94;4968374;28;20467;-64
2021/09/05 06:43:46;;;;;;;14.35;10.55;;;15.50;77.00;;;13.76;82.64;96352.31;4949276;28;20452;-64
2021/09/05 06:46:13;;;;;;;11.90;9.82;;;15.50;77.20;;;13.85;82.79;96352.94;4966796;28;20031;-64
2021/09/05 06:48:42;;;;;;;14.05;10.75;;;15.60;77.20;;;13.90;82.51;96346.03;4960735;28;20035;-66
2021/09/05 06:51:09;;;;;;;13.02;10.43;;;15.60;77.20;;;14.00;82.85;96357.00;4948615;28;20341;-65
2021/09/05 06:53:35;;;;;;;44.63;39.40;;;15.80;77.30;;;14.10;83.08;96357.41;4942483;28;20039;-66
2021/09/05 06:56:01;;;;;;;14.55;12.48;;;15.90;77.00;;;14.23;82.51;96350.47;4937883;28;20042;-66
2021/09/05 06:58:26;;;;;;;14.18;11.10;;;16.10;76.40;;;14.33;81.88;96340.31;4969118;28;20050;-64
2021/09/05 07:00:52;;;;;;;16.58;12.25;;;16.10;75.40;;;14.47;82.10;96360.44;4953969;28;20474;-65
2021/09/05 07:03:18;;;;;;;14.27;11.65;;;16.40;75.70;;;14.62;82.70;96354.91;4954148;28;20521;-65
2021/09/05 07:05:44;;;;;;;24.02;19.38;;;16.50;74.80;;;14.76;80.65;96347.75;4966384;28;20043;-66
2021/09/05 07:08:09;;;;;;;34.65;28.88;;;16.80;74.70;;;14.93;82.38;96352.38;4960911;28;20042;-66
2021/09/05 07:10:36;;;;;;;15.20;13.15;;;17.10;74.20;;;15.13;81.34;96349.63;4946446;28;20051;-65
2021/09/05 07:13:02;;;;;;;15.07;11.98;;;17.30;73.40;;;15.31;80.85;96355.03;4949019;28;20105;-64
2021/09/05 07:15:28;;;;;;;14.52;11.88;;;17.50;72.60;;;15.49;80.26;96351.69;4968532;28;20043;-64
2021/09/05 07:17:53;;;;;;;20.98;15.65;;;17.70;71.90;;;15.69;79.52;96356.91;4969524;28;20074;-64
2021/09/05 07:20:19;;;;;;;22.67;18.83;;;18.10;71.30;;;15.94;80.13;96354.28;4958692;28;20126;-62
2021/09/05 07:22:45;;;;;;;19.10;15.05;;;18.50;71.00;;;16.19;79.19;96359.56;4950052;28;20034;-65
2021/09/05 07:25:11;;;;;;;16.63;13.38;;;18.80;69.90;;;16.46;79.28;96358.28;4959561;28;20529;-65
2021/09/05 07:27:37;;;;;;;17.23;13.15;;;19.10;68.10;;;16.76;78.52;96361.09;4934649;29;20046;-65
2021/09/05 07:30:04;;;;;;;15.75;12.32;;;19.50;67.30;;;17.03;77.00;96363.44;4942890;28;20039;-65
2021/09/05 07:32:29;;;;;;;15.55;12.25;;;19.70;66.20;;;17.33;76.03;96368.78;4965227;28;20035;-65
2021/09/05 07:34:55;;;;;;;13.13;11.05;;;20.10;64.00;;;17.59;75.18;96364.97;4948484;28;20129;-65
2021/09/05 07:37:21;;;;;;;12.55;11.05;;;20.40;64.10;;;17.87;74.95;96367.84;4969710;28;20041;-65
2021/09/05 07:39:47;;;;;;;18.48;15.88;;;20.60;62.10;;;18.13;73.67;96369.31;4969306;28;20059;-65
2021/09/05 07:42:12;;;;;;;17.20;13.77;;;20.90;61.70;;;18.42;73.26;96377.41;4953293;28;20145;-66
2021/09/05 07:44:38;;;;;;;12.20;10.27;;;21.20;60.30;;;18.68;72.33;96371.66;4937693;28;20038;-66
2021/09/05 07:47:04;;;;;;;13.00;9.90;;;21.50;58.60;;;18.91;70.67;96374.28;4953619;28;20030;-66
2021/09/05 07:49:29;;;;;;;14.18;9.80;;;21.80;58.30;;;19.18;70.89;96376.41;4966024;28;20479;-66
2021/09/05 07:51:55;;;;;;;13.13;9.35;;;22.10;57.90;;;19.42;70.38;96369.97;4934414;29;20665;-65
2021/09/05 07:54:21;;;;;;;15.05;13.50;;;22.40;57.50;;;19.69;70.47;96377.41;4934005;28;20451;-66
2021/09/05 07:56:47;;;;;;;16.10;11.32;;;22.80;57.00;;;19.95;69.84;96376.03;4950324;28;20518;-66
2021/09/05 07:59:13;;;;;;;13.82;10.95;;;23.00;55.50;;;20.16;69.34;96376.13;4934808;28;20557;-66
2021/09/05 08:01:38;;;;;;;10.40;8.98;;;23.20;55.20;;;20.41;68.20;96380.28;4953011;28;20038;-66
2021/09/05 08:04:04;;;;;;;14.32;10.90;;;23.50;55.20;;;20.64;67.07;96376.63;4953906;28;20043;-66
2021/09/05 08:06:30;;;;;;;12.15;9.48;;;23.70;54.30;;;20.87;66.78;96372.94;4968935;28;20034;-66
2021/09/05 08:08:57;;;;;;;13.88;9.70;;;24.00;52.80;;;21.09;65.59;96371.06;4969666;28;20081;-66
2021/09/05 08:11:23;;;;;;;14.40;9.60;;;24.10;51.40;;;21.32;65.47;96376.22;4948947;28;20064;-66
2021/09/05 08:13:49;;;;;;;13.05;9.50;;;24.40;52.60;;;21.53;65.21;96382.59;4953242;28;20109;-66
2021/09/05 08:16:15;;;;;;;12.75;9.40;;;24.60;52.40;;;21.77;64.44;96383.13;4952923;28;20169;-66
2021/09/05 08:18:41;;;;;;;12.30;9.63;;;24.80;50.10;;;22.00;62.68;96387.34;4969219;28;20039;-66
2021/09/05 08:21:07;;;;;;;12.20;9.27;;;25.10;47.20;;;22.20;61.42;96382.22;4949984;28;20067;-66
2021/09/05 08:23:34;;;;;;;9.77;8.65;;;25.30;46.60;;;22.42;60.38;96384.78;4965303;28;20506;-66
2021/09/05 08:25:59;;;;;;;12.27;9.18;;;25.50;46.50;;;22.61;60.31;96385.97;4945478;28;20035;-66
2021/09/05 08:28:25;;;;;;;11.15;9.10;;;25.60;46.50;;;22.83;59.35;96374.34;4937506;28;21149;-67
2021/09/05 08:30:51;;;;;;;10.95;8.75;;;25.90;45.60;;;22.99;59.07;96373.38;4966736;28;20034;-66
2021/09/05 08:33:17;;;;;;;12.60;9.18;;;26.00;46.20;;;23.23;57.46;96374.56;4956870;28;20031;-66
2021/09/05 08:35:44;;;;;;;12.13;9.40;;;26.20;44.30;;;23.43;57.40;96378.38;4940547;28;20043;-66
2021/09/05 08:38:09;;;;;;;17.08;14.57;;;26.40;44.30;;;23.61;56.90;96386.00;4953490;28;20414;-66
2021/09/05 08:40:41;;;;;;;16.05;12.68;;;26.60;43.90;;;23.79;54.66;96382.81;4947053;28;20051;-66
2021/09/05 08:43:08;;;;;;;12.52;9.60;;;26.70;44.50;;;23.99;56.92;96381.22;4972832;28;20154;-66
2021/09/05 08:45:34;;;;;;;16.13;10.38;;;26.90;44.60;;;24.21;55.69;96389.03;4956719;28;20031;-66
2021/09/05 08:48:01;;;;;;;10.45;7.95;;;27.10;43.70;;;24.40;55.28;96380.19;4957209;28;20423;-66
2021/09/05 08:50:26;;;;;;;12.73;9.38;;;27.30;43.20;;;24.65;54.89;96384.75;4947270;28;20050;-66
2021/09/05 08:52:52;;;;;;;12.70;10.95;;;27.60;42.40;;;24.85;54.11;96383.91;4937523;29;20444;-66
2021/09/05 08:55:18;;;;;;;9.32;7.75;;;27.60;42.20;;;25.05;53.23;96383.09;4921498;29;20537;-66
2021/09/05 08:57:44;;;;;;;10.65;7.53;;;27.70;41.10;;;25.27;52.96;96380.03;4937280;29;20125;-66
2021/09/05 09:00:10;;;;;;;8.07;6.88;;;28.10;41.60;;;25.50;52.26;96386.69;4953233;28;20066;-66
2021/09/05 09:02:50;;;;;;;12.50;10.38;;;28.30;40.90;;;25.76;49.04;96393.56;4971981;28;20110;-66
2021/09/05 09:05:35;;;;;;;;;;;28.50;40.90;;;25.98;48.46;96390.47;4940940;28;20027;-66
2021/09/05 09:08:04;;;;;;;12.38;8.63;;;28.60;40.20;;;26.23;49.91;96393.00;4972795;28;19922;-66
2021/09/05 09:10:30;;;;;;;9.27;8.27;;;28.80;40.00;;;26.30;51.19;96391.88;4971801;28;20079;-66
2021/09/05 09:12:56;;;;;;;12.10;10.23;;;28.50;40.10;;;26.46;50.02;96388.00;4952880;29;20051;-66
2021/09/05 09:15:27;;;;;;;12.00;9.10;;;28.70;40.50;;;26.73;47.07;96388.31;4952977;28;20035;-66
2021/09/05 09:18:01;;;;;;;9.40;6.80;;;29.20;38.90;;;26.96;47.83;96388.63;4954211;28;20152;-66
2021/09/05 09:20:40;;;;;;;7.65;5.97;;;29.60;39.10;;;27.20;45.58;96388.66;4962054;28;20106;-66
2021/09/05 09:23:25;;;;;;;11.30;7.65;;;29.70;38.60;;;27.46;44.85;96377.25;4971529;28;20143;-66
2021/09/05 09:26:04;;;;;;;10.80;7.78;;;29.90;37.90;;;27.70;43.81;96376.44;4956567;28;20042;-66
2021/09/05 09:28:46;;;;;;;16.75;11.63;;;30.20;37.10;;;27.89;46.26;96374.53;4971750;28;20035;-66
2021/09/05 09:31:17;;;;;;;11.35;9.20;;;30.50;36.80;;;28.14;44.24;96375.25;4960249;28;20388;-66
2021/09/05 09:33:51;;;;;;;8.05;6.30;;;30.70;36.80;;;28.35;44.13;96377.38;4936740;29;20031;-66
2021/09/05 09:36:20;;;;;;;9.80;5.88;;;30.80;35.70;;;28.61;43.71;96377.75;4970875;28;20038;-66
2021/09/05 09:38:53;;;;;;;22.65;17.17;;;31.10;35.50;;;28.86;42.18;96373.00;4971623;28;20425;-66
2021/09/05 09:41:18;;;;;;;9.48;7.65;;;31.40;36.50;;;29.06;43.98;96382.66;4944046;28;20462;-66
2021/09/05 09:43:54;;;;;;;9.23;6.57;;;31.50;35.40;;;29.27;40.76;96381.97;4953009;28;20070;-66
2021/09/05 09:46:22;;;;;;;8.27;6.13;;;31.80;35.10;;;29.39;41.64;96373.31;4946583;28;20391;-66
2021/09/05 09:48:54;;;;;;;8.63;7.10;;;31.90;34.50;;;29.58;40.20;96381.38;4965648;28;20062;-67
2021/09/05 09:51:20;;;;;;;8.75;5.28;;;32.10;34.40;;;29.74;41.89;96373.72;4952003;28;20035;-66
2021/09/05 09:53:46;;;;;;;5.50;4.53;;;32.30;33.60;;;30.00;41.01;96376.66;4951823;28;20499;-66
2021/09/05 09:56:16;;;;;;;7.38;5.50;;;32.50;33.20;;;30.13;40.82;96375.84;4950523;28;20107;-65
2021/09/05 09:58:42;;;;;;;6.28;5.15;;;32.70;32.90;;;30.31;40.45;96377.56;4946939;28;20534;-67
2021/09/05 10:01:08;;;;;;;7.15;5.45;;;33.00;32.60;;;30.48;40.19;96380.41;4931630;29;20043;-65
2021/09/05 10:03:34;;;;;;;8.20;5.60;;;33.10;31.70;;;30.77;39.33;96374.53;4935743;29;20070;-65
2021/09/05 10:06:00;;;;;;;6.93;5.80;;;33.50;31.30;;;31.08;39.22;96377.25;4936033;29;20035;-64
2021/09/05 10:08:26;;;;;;;6.55;4.90;;;33.60;31.30;;;31.50;39.83;96369.59;4938800;28;20530;-66
2021/09/05 10:10:53;;;;;;;5.60;4.93;;;34.10;31.50;;;32.02;38.42;96372.41;4957564;28;20058;-66